Time;durP1;ratioP1;P1;durP2;ratioP2;P2;SDS_P1;SDS_P2;PMS_P1;PMS_P2;Temp;Humidity;BMP_temperature;BMP_pressure;BME280_temperature;BME280_humidity;BME280_pressure;Samples;Min_cycle;Max_cycle;Signal;HPM_P1;HPM_P2
2023/03/14 00:01:17;;;;;;;5.60;1.48;;;;;;;10.69;81.62;98876.31;5031030;28;20068;-81
2023/03/14 00:03:43;;;;;;;7.18;1.33;;;;;;;10.67;82.28;98880.75;5031317;28;20556;-81
2023/03/14 00:06:10;;;;;;;5.47;1.33;;;;;;;10.63;82.44;98881.84;5029723;28;20623;-81
2023/03/14 00:08:35;;;;;;;5.03;1.20;;;;;;;10.59;82.61;98875.19;5027878;28;20491;-81
2023/03/14 00:11:09;;;;;;;6.63;1.58;;;;;;;10.56;82.73;98870.97;5030721;28;20032;-81
2023/03/14 00:13:34;;;;;;;4.80;1.20;;;;;;;10.54;83.00;98874.59;5031977;28;20033;-81
2023/03/14 00:16:09;;;;;;;6.65;1.33;;;;;;;10.51;82.93;98877.38;5031769;28;20029;-81
2023/03/14 00:18:34;;;;;;;6.20;1.40;;;;;;;10.48;81.95;98873.19;5030439;28;20037;-81
2023/03/14 00:21:02;;;;;;;4.78;1.30;;;;;;;10.47;80.76;98880.13;5031069;28;20045;-81
2023/03/14 00:23:29;;;;;;;4.30;1.63;;;;;;;10.44;80.83;98872.50;5030357;28;20432;-81
2023/03/14 00:26:04;;;;;;;5.18;1.15;;;;;;;10.46;79.39;98882.84;5027862;28;20040;-81
2023/03/14 00:28:29;;;;;;;5.57;1.25;;;;;;;10.43;78.52;98885.59;5028643;28;20126;-81
2023/03/14 00:30:54;;;;;;;4.72;1.17;;;;;;;10.42;77.85;98878.72;5029912;28;20423;-82
2023/03/14 00:33:20;;;;;;;3.28;0.90;;;;;;;10.45;77.13;98894.97;5030777;28;20035;-82
2023/03/14 00:36:05;;;;;;;5.22;0.82;;;;;;;10.38;77.38;98893.66;5031100;28;20026;-81
2023/03/14 00:38:31;;;;;;;5.68;1.08;;;;;;;10.38;76.71;98904.06;5029263;28;20025;-81
2023/03/14 00:40:57;;;;;;;4.53;0.90;;;;;;;10.32;75.64;98901.75;5031989;28;20033;-81
2023/03/14 00:43:23;;;;;;;4.03;0.85;;;;;;;10.28;75.04;98908.03;5033116;28;20025;-82
2023/03/14 00:45:52;;;;;;;4.85;0.70;;;;;;;10.27;74.72;98902.03;5034911;28;20032;-82
2023/03/14 00:48:19;;;;;;;6.55;0.85;;;;;;;10.29;73.60;98907.97;5033545;28;20083;-82
2023/03/14 00:50:45;;;;;;;5.25;0.93;;;;;;;10.29;73.53;98914.94;5035743;28;20033;-81
2023/03/14 00:53:11;;;;;;;3.33;0.70;;;;;;;10.28;73.93;98919.31;5033072;28;20025;-81
2023/03/14 00:55:38;;;;;;;2.45;0.80;;;;;;;10.29;73.97;98920.13;5032820;28;20044;-81
2023/03/14 00:58:03;;;;;;;4.57;0.88;;;;;;;10.30;73.50;98916.59;5028946;28;20079;-81
2023/03/14 01:00:29;;;;;;;2.92;0.68;;;;;;;10.31;73.40;98908.75;5032534;28;20076;-82
2023/03/14 01:02:54;;;;;;;6.07;0.80;;;;;;;10.32;72.98;98910.41;5034860;28;20048;-81
2023/03/14 01:05:22;;;;;;;6.13;0.80;;;;;;;10.31;72.96;98908.75;5033307;28;20055;-81
2023/03/14 01:07:47;;;;;;;5.38;0.75;;;;;;;10.29;73.37;98907.13;5032411;28;20451;-81
2023/03/14 01:10:12;;;;;;;4.07;0.70;;;;;;;10.29;72.98;98904.53;5032757;28;20516;-80
2023/03/14 01:12:38;;;;;;;3.28;0.70;;;;;;;10.32;72.51;98897.41;5034071;28;20119;-82
2023/03/14 01:15:03;;;;;;;5.53;0.80;;;;;;;10.32;71.92;98896.56;5035215;28;20021;-82
2023/03/14 01:17:29;;;;;;;7.47;1.35;;;;;;;10.30;71.97;98891.47;5033053;28;20068;-81
2023/03/14 01:19:54;;;;;;;3.40;0.77;;;;;;;10.32;72.16;98899.16;5033918;28;20400;-82
2023/03/14 01:22:21;;;;;;;4.65;0.75;;;;;;;10.30;72.04;98893.22;5034778;28;20049;-81
2023/03/14 01:24:46;;;;;;;2.97;0.75;;;;;;;10.28;72.13;98892.47;5016746;28;20127;-82
2023/03/14 01:27:12;;;;;;;3.45;0.57;;;;;;;10.27;72.22;98889.03;5033199;28;20548;-81
2023/03/14 01:29:37;;;;;;;3.08;1.05;;;;;;;10.24;72.08;98881.41;5031919;28;20033;-81
2023/03/14 01:32:03;;;;;;;4.20;0.60;;;;;;;10.21;72.50;98886.75;5034526;28;20057;-81
2023/03/14 01:34:28;;;;;;;4.15;0.70;;;;;;;10.22;72.32;98877.22;5033618;28;20038;-81
2023/03/14 01:36:54;;;;;;;3.83;0.68;;;;;;;10.18;72.99;98877.38;5033252;28;20040;-81
2023/03/14 01:39:19;;;;;;;3.22;0.88;;;;;;;10.21;72.01;98865.16;5034167;28;20392;-81
2023/03/14 01:41:44;;;;;;;3.45;0.70;;;;;;;10.22;71.61;98877.22;5033197;28;20079;-81
2023/03/14 01:44:13;;;;;;;2.28;0.60;;;;;;;10.17;71.90;98870.53;5033588;28;20464;-82
2023/03/14 01:46:40;;;;;;;3.72;0.70;;;;;;;10.18;71.63;98872.19;5033659;28;20052;-81
2023/03/14 01:49:09;;;;;;;2.47;0.60;;;;;;;10.17;71.86;98867.91;5031448;28;20026;-81
2023/03/14 01:51:49;;;;;;;4.60;0.70;;;;;;;10.14;72.46;98849.91;5032303;28;20056;-81
2023/03/14 01:54:23;;;;;;;0.85;0.40;;;;;;;10.12;72.10;98851.75;5032509;28;20025;-82
2023/03/14 01:56:54;;;;;;;3.53;0.80;;;;;;;10.14;72.04;98847.31;5031511;28;20040;-81
2023/03/14 01:59:19;;;;;;;4.90;0.70;;;;;;;10.11;72.61;98849.25;5031325;28;20025;-81
2023/03/14 02:01:47;;;;;;;6.57;0.85;;;;;;;10.11;72.40;98839.66;5029781;28;20473;-81
2023/03/14 02:04:13;;;;;;;4.22;0.90;;;;;;;10.09;72.42;98846.72;5030780;28;20435;-82
2023/03/14 02:06:59;;;;;;;3.67;0.60;;;;;;;10.09;72.64;98849.31;5032967;28;20057;-81
2023/03/14 02:09:24;;;;;;;3.10;0.70;;;;;;;10.08;72.77;98852.81;5032103;28;20546;-81
2023/03/14 02:11:51;;;;;;;4.90;1.02;;;;;;;10.08;72.71;98842.44;5031016;28;20021;-81
2023/03/14 02:14:30;;;;;;;5.28;0.93;;;;;;;10.07;73.10;98843.38;5031434;28;20495;-81
2023/03/14 02:16:55;;;;;;;4.38;0.90;;;;;;;10.07;73.03;98839.94;5032847;28;20121;-81
2023/03/14 02:19:35;;;;;;;4.50;0.85;;;;;;;10.10;72.78;98845.78;5032970;28;20041;-81
2023/03/14 02:22:10;;;;;;;4.28;0.85;;;;;;;10.05;73.42;98840.03;5028942;28;20030;-80
2023/03/14 02:24:58;;;;;;;5.55;1.10;;;;;;;10.06;73.19;98836.50;5031600;28;20033;-81
2023/03/14 02:27:25;;;;;;;4.40;1.00;;;;;;;10.05;73.67;98831.38;5030702;28;20034;-81
2023/03/14 02:29:59;;;;;;;5.40;1.02;;;;;;;10.08;73.26;98837.25;5030531;28;20017;-81
2023/03/14 02:32:27;;;;;;;6.03;1.15;;;;;;;10.08;73.71;98833.81;5029668;28;20692;-82
2023/03/14 02:34:56;;;;;;;4.93;0.93;;;;;;;10.07;73.54;98835.59;5032578;28;20017;-81
2023/03/14 02:37:25;;;;;;;6.35;0.98;;;;;;;10.07;73.60;98832.13;5032377;28;20025;-82
2023/03/14 02:39:51;;;;;;;5.82;1.00;;;;;;;10.05;73.83;98837.44;5032355;28;20029;-81
2023/03/14 02:42:17;;;;;;;7.25;1.00;;;;;;;10.00;74.21;98821.25;5031363;28;20021;-81
2023/03/14 02:45:19;;;;;;;6.28;1.27;;;;;;;9.97;74.06;98830.06;5032457;28;20026;-81
2023/03/14 02:47:52;;;;;;;5.93;0.90;;;;;;;9.93;74.63;98831.16;5030524;28;20118;-81
2023/03/14 02:50:21;;;;;;;5.70;1.00;;;;;;;9.89;75.05;98832.25;5031683;28;20053;-81
2023/03/14 02:52:46;;;;;;;7.47;1.10;;;;;;;9.87;74.62;98819.34;5029365;28;20104;-82
2023/03/14 02:55:12;;;;;;;5.15;1.10;;;;;;;9.87;74.97;98821.94;5032903;28;20105;-81
2023/03/14 02:57:37;;;;;;;8.13;1.20;;;;;;;9.85;75.30;98823.78;5032599;28;20385;-81
2023/03/14 03:00:04;;;;;;;7.10;1.10;;;;;;;9.86;75.25;98822.88;5032364;28;20045;-81
2023/03/14 03:02:30;;;;;;;5.32;1.17;;;;;;;9.85;75.60;98823.78;5029802;28;20121;-81
2023/03/14 03:04:55;;;;;;;5.47;0.80;;;;;;;9.84;75.62;98821.25;5031408;28;20112;-81
2023/03/14 03:07:21;;;;;;;4.43;0.90;;;;;;;9.84;75.94;98826.47;5031760;28;20057;-81
2023/03/14 03:09:46;;;;;;;6.47;0.90;;;;;;;9.83;75.88;98823.03;5032084;28;20047;-81
2023/03/14 03:12:11;;;;;;;4.50;1.00;;;;;;;9.81;76.12;98814.50;5029857;28;20173;-80
2023/03/14 03:14:37;;;;;;;4.57;0.95;;;;;;;9.82;76.37;98823.97;5031744;28;20021;-81
2023/03/14 03:17:03;;;;;;;3.30;0.88;;;;;;;9.79;76.92;98824.13;5031331;28;20021;-80
2023/03/14 03:19:29;;;;;;;5.10;1.10;;;;;;;9.76;77.10;98821.69;5023921;28;20029;-81
2023/03/14 03:21:54;;;;;;;3.08;0.82;;;;;;;9.76;77.23;98821.69;5030538;28;20021;-81
2023/03/14 03:24:19;;;;;;;6.18;1.00;;;;;;;9.75;77.33;98820.00;5032358;28;20491;-81
2023/03/14 03:26:45;;;;;;;6.53;1.08;;;;;;;9.73;77.81;98824.47;5013393;28;20029;-81
2023/03/14 03:29:10;;;;;;;4.93;0.90;;;;;;;9.71;77.92;98808.97;5028959;28;20022;-80
2023/03/14 03:31:37;;;;;;;3.92;1.00;;;;;;;9.71;78.12;98810.75;5031956;28;20169;-80
2023/03/14 03:34:02;;;;;;;6.03;1.08;;;;;;;9.71;77.80;98805.53;5030191;28;20384;-80
2023/03/14 03:36:28;;;;;;;3.30;0.80;;;;;;;9.71;77.91;98810.75;5031416;28;20511;-81
2023/03/14 03:38:53;;;;;;;4.28;0.88;;;;;;;9.70;77.91;98822.03;5029893;28;20068;-81
2023/03/14 03:41:18;;;;;;;6.70;0.98;;;;;;;9.68;78.33;98822.09;5031715;28;20029;-81
2023/03/14 03:43:43;;;;;;;5.57;0.80;;;;;;;9.68;77.96;98824.69;5027834;28;20118;-81
2023/03/14 03:46:09;;;;;;;6.72;1.08;;;;;;;9.67;78.46;98814.41;5031344;28;20036;-80
2023/03/14 03:48:35;;;;;;;5.00;1.05;;;;;;;9.64;78.54;98804.19;5029268;28;20385;-80
2023/03/14 03:51:00;;;;;;;5.95;1.13;;;;;;;9.64;78.15;98799.00;5030771;28;20030;-81
2023/03/14 03:53:25;;;;;;;6.00;1.10;;;;;;;9.62;78.07;98808.63;5031777;28;20097;-81
2023/03/14 03:55:50;;;;;;;6.15;1.00;;;;;;;9.62;78.42;98799.09;5030911;28;20029;-81
2023/03/14 03:58:16;;;;;;;5.68;1.10;;;;;;;9.61;78.56;98799.16;5032385;28;20077;-81
2023/03/14 04:00:41;;;;;;;6.40;1.10;;;;;;;9.60;78.58;98800.09;5030153;28;20571;-81
2023/03/14 04:03:06;;;;;;;6.15;0.95;;;;;;;9.56;78.39;98789.84;5030979;28;20033;-81
2023/03/14 04:05:32;;;;;;;4.80;0.73;;;;;;;9.55;78.55;98798.59;5029496;28;20095;-80
2023/03/14 04:07:57;;;;;;;3.70;1.08;;;;;;;9.56;78.06;98792.44;5029165;28;20484;-81
2023/03/14 04:10:22;;;;;;;4.82;0.95;;;;;;;9.56;78.41;98797.66;5029897;28;20030;-81
2023/03/14 04:12:48;;;;;;;4.85;1.10;;;;;;;9.57;78.21;98803.69;5031400;28;20488;-81
2023/03/14 04:15:13;;;;;;;6.90;1.00;;;;;;;9.57;77.84;98803.69;5030146;28;20029;-81
2023/03/14 04:17:38;;;;;;;2.97;0.73;;;;;;;9.56;78.07;98795.06;5032221;28;20064;-81
2023/03/14 04:20:04;;;;;;;4.35;1.10;;;;;;;9.55;78.34;98795.16;5029375;28;20201;-80
2023/03/14 04:22:29;;;;;;;5.78;1.10;;;;;;;9.50;77.96;98795.41;5028998;28;20025;-81
2023/03/14 04:24:55;;;;;;;5.22;1.17;;;;;;;9.50;78.29;98803.19;5031202;28;20100;-81
2023/03/14 04:27:20;;;;;;;6.03;1.20;;;;;;;9.48;78.07;98802.44;5031038;28;20461;-81
2023/03/14 04:29:45;;;;;;;4.63;0.88;;;;;;;9.42;78.75;98794.97;5030041;28;20060;-81
2023/03/14 04:32:10;;;;;;;4.38;0.95;;;;;;;9.40;78.40;98800.25;5032636;28;20476;-81
2023/03/14 04:34:36;;;;;;;3.95;0.75;;;;;;;9.39;78.56;98789.97;5030022;28;20029;-81
2023/03/14 04:37:01;;;;;;;4.95;0.80;;;;;;;9.36;78.80;98790.94;5029437;28;20029;-81
2023/03/14 04:39:26;;;;;;;3.25;0.88;;;;;;;9.37;78.76;98792.63;5029091;28;20052;-81
2023/03/14 04:41:52;;;;;;;2.67;0.60;;;;;;;9.39;79.15;98784.78;5028561;28;20087;-81
2023/03/14 04:44:17;;;;;;;3.20;0.70;;;;;;;9.38;79.46;98780.50;5029890;28;20366;-81
2023/03/14 04:46:43;;;;;;;4.05;0.57;;;;;;;9.38;79.92;98777.91;5028792;28;20032;-80
2023/03/14 04:49:08;;;;;;;3.13;0.60;;;;;;;9.36;80.08;98780.56;5029564;28;20083;-81
2023/03/14 04:51:33;;;;;;;3.70;0.70;;;;;;;9.35;80.67;98772.88;5031827;28;20029;-81
2023/03/14 04:53:59;;;;;;;3.05;0.60;;;;;;;9.35;80.80;98783.25;5030116;28;20087;-81
2023/03/14 04:56:24;;;;;;;2.05;0.73;;;;;;;9.35;81.08;98775.47;5028282;28;20052;-81
2023/03/14 04:58:49;;;;;;;1.92;0.70;;;;;;;9.35;81.40;98772.88;5030732;28;20037;-81
2023/03/14 05:01:15;;;;;;;1.73;0.45;;;;;;;9.34;81.47;98771.19;5030357;28;20036;-80
2023/03/14 05:03:40;;;;;;;1.80;0.70;;;;;;;9.35;81.95;98784.09;5030207;28;20029;-81
2023/03/14 05:06:05;;;;;;;1.92;0.60;;;;;;;9.32;83.51;98781.66;5029233;28;20033;-81
2023/03/14 05:08:31;;;;;;;3.40;0.60;;;;;;;9.27;83.88;98784.50;5028703;28;20067;-81
2023/03/14 05:10:57;;;;;;;2.30;0.65;;;;;;;9.20;84.94;98788.34;5029896;28;20025;-80
2023/03/14 05:13:23;;;;;;;2.03;0.80;;;;;;;9.17;85.28;98780.72;5030091;28;21609;-81
2023/03/14 05:15:50;;;;;;;1.20;0.60;;;;;;;9.13;85.75;98774.03;5030014;28;20239;-79
2023/03/14 05:18:15;;;;;;;3.40;0.82;;;;;;;9.10;86.48;98781.97;5012220;28;20025;-81
2023/03/14 05:20:42;;;;;;;2.25;0.80;;;;;;;9.05;87.05;98777.03;5029454;28;20048;-81
2023/03/14 05:23:08;;;;;;;2.58;1.35;;;;;;;9.02;87.15;98779.78;5027173;28;20037;-81
2023/03/14 05:25:35;;;;;;;2.30;1.20;;;;;;;9.01;87.14;98774.69;5014140;28;20056;-81
2023/03/14 05:28:00;;;;;;;3.63;1.40;;;;;;;8.95;87.76;98781.84;5014091;28;20108;-81
2023/03/14 05:30:27;;;;;;;2.13;1.10;;;;;;;8.91;88.08;98776.91;5014378;28;20033;-79
2023/03/14 05:32:53;;;;;;;4.10;1.08;;;;;;;8.88;87.82;98783.09;5016232;28;20072;-81
2023/03/14 05:35:18;;;;;;;2.33;1.05;;;;;;;8.87;88.00;98768.47;5034306;28;20030;-82
2023/03/14 05:37:43;;;;;;;4.70;1.10;;;;;;;8.86;88.44;98771.97;5033766;28;20047;-81
2023/03/14 05:40:09;;;;;;;2.05;0.80;;;;;;;8.82;88.94;98765.28;5033220;28;20458;-82
2023/03/14 05:42:34;;;;;;;2.10;1.00;;;;;;;8.83;88.84;98760.91;5033352;28;20052;-82
2023/03/14 05:45:00;;;;;;;2.95;1.00;;;;;;;8.80;88.74;98761.91;5031814;28;20037;-82
2023/03/14 05:47:25;;;;;;;2.28;0.95;;;;;;;8.79;88.88;98752.47;5032653;28;20057;-83
2023/03/14 05:49:50;;;;;;;2.58;1.27;;;;;;;8.77;89.62;98751.69;5030619;28;20028;-82
2023/03/14 05:52:16;;;;;;;3.03;1.00;;;;;;;8.77;89.65;98751.69;5015096;28;20068;-83
2023/03/14 05:54:41;;;;;;;3.67;1.02;;;;;;;8.75;89.95;98756.13;5031635;28;20490;-82
2023/03/14 05:57:06;;;;;;;2.22;0.88;;;;;;;8.77;89.75;98756.88;5032746;28;20048;-81
2023/03/14 05:59:33;;;;;;;2.28;0.90;;;;;;;8.77;90.17;98756.88;5032571;28;20083;-81
2023/03/14 06:01:58;;;;;;;2.83;1.05;;;;;;;8.75;89.81;98750.94;5030006;28;20029;-81
2023/03/14 06:04:24;;;;;;;3.35;1.00;;;;;;;8.76;90.18;98745.69;5029017;28;20029;-81
2023/03/14 06:06:50;;;;;;;3.75;1.45;;;;;;;8.79;89.81;98755.06;5030411;28;20105;-81
2023/03/14 06:09:15;;;;;;;2.92;1.10;;;;;;;8.78;90.38;98745.59;5031671;28;20025;-83
2023/03/14 06:11:41;;;;;;;2.78;1.10;;;;;;;8.79;90.74;98739.50;5029558;28;20116;-82
2023/03/14 06:14:06;;;;;;;3.30;1.23;;;;;;;8.79;90.94;98745.53;5036048;28;20134;-80
2023/03/14 06:16:32;;;;;;;4.50;1.67;;;;;;;8.80;91.14;98741.16;5037920;28;20033;-82
2023/03/14 06:18:57;;;;;;;2.85;1.15;;;;;;;8.81;91.30;98742.84;5039132;28;20042;-81
2023/03/14 06:21:22;;;;;;;3.47;1.30;;;;;;;8.85;91.26;98748.69;5038737;28;20064;-81
2023/03/14 06:23:48;;;;;;;2.80;1.17;;;;;;;8.84;91.06;98742.69;5036136;28;20773;-80
2023/03/14 06:26:15;;;;;;;2.63;1.30;;;;;;;8.84;91.81;98747.88;5039959;28;20082;-78
2023/03/14 06:28:41;;;;;;;3.10;1.35;;;;;;;8.84;92.19;98747.88;5035367;28;20437;-81
2023/03/14 06:31:06;;;;;;;3.38;1.30;;;;;;;8.84;92.36;98754.81;5032603;28;20489;-81
2023/03/14 06:33:31;;;;;;;2.88;1.20;;;;;;;8.84;92.47;98747.03;5034519;28;20079;-83
2023/03/14 06:35:57;;;;;;;2.28;1.40;;;;;;;8.84;93.09;98753.06;5036118;28;20119;-80
2023/03/14 06:38:22;;;;;;;2.97;1.40;;;;;;;8.85;92.69;98748.69;5035518;28;20399;-82
2023/03/14 06:40:47;;;;;;;3.50;1.35;;;;;;;8.85;92.74;98764.25;5039140;28;20113;-81
2023/03/14 06:43:12;;;;;;;3.38;1.55;;;;;;;8.88;93.12;98754.56;5036404;28;20063;-82
2023/03/14 06:45:38;;;;;;;2.47;1.20;;;;;;;8.87;93.28;98757.25;5037024;28;20033;-81
2023/03/14 06:48:03;;;;;;;2.67;1.30;;;;;;;8.93;93.00;98756.94;5040353;28;20029;-81
2023/03/14 06:50:29;;;;;;;4.03;1.65;;;;;;;8.97;93.14;98766.19;5037054;28;20036;-81
2023/03/14 06:52:54;;;;;;;2.70;1.48;;;;;;;8.99;93.22;98761.78;5035743;28;20095;-82
2023/03/14 06:55:20;;;;;;;4.65;1.60;;;;;;;9.02;93.01;98765.97;5021226;28;20068;-82
2023/03/14 06:57:46;;;;;;;4.05;1.30;;;;;;;9.06;93.02;98764.88;5039114;28;20131;-83
2023/03/14 07:00:12;;;;;;;4.07;1.50;;;;;;;9.11;93.55;98770.66;5037887;28;20067;-82
2023/03/14 07:02:39;;;;;;;3.13;1.63;;;;;;;9.15;93.28;98774.78;5030601;28;20037;-80
2023/03/14 07:05:05;;;;;;;3.80;1.45;;;;;;;9.21;93.05;98771.88;5033951;28;20127;-82
2023/03/14 07:07:31;;;;;;;6.22;1.65;;;;;;;9.25;93.31;98780.31;5034119;28;20160;-81
2023/03/14 07:09:56;;;;;;;3.53;1.80;;;;;;;9.31;92.99;98779.16;5035485;28;20115;-81
2023/03/14 07:12:22;;;;;;;3.97;1.60;;;;;;;9.33;93.07;98782.50;5034275;28;20111;-81
2023/03/14 07:14:47;;;;;;;3.63;1.83;;;;;;;9.34;93.16;98792.78;5030441;28;20478;-80
2023/03/14 07:17:12;;;;;;;4.78;1.70;;;;;;;9.35;93.55;98791.03;5039500;28;20076;-81
2023/03/14 07:19:37;;;;;;;3.60;1.70;;;;;;;9.36;93.17;98793.53;5037534;28;20510;-81
2023/03/14 07:22:04;;;;;;;3.28;1.63;;;;;;;9.34;93.14;98791.97;5039819;28;20049;-81
2023/03/14 07:24:29;;;;;;;6.20;2.30;;;;;;;9.33;93.64;98798.06;5038206;28;20123;-81
2023/03/14 07:26:54;;;;;;;3.15;1.80;;;;;;;9.32;93.55;98793.81;5038311;28;20116;-82
2023/03/14 07:29:20;;;;;;;3.60;1.70;;;;;;;9.32;93.75;98801.59;5033944;28;20075;-82
2023/03/14 07:31:45;;;;;;;2.75;1.67;;;;;;;9.30;93.75;98803.41;5033831;28;20439;-82
2023/03/14 07:34:10;;;;;;;3.55;1.80;;;;;;;9.27;94.03;98825.19;5036562;28;20055;-84
2023/03/14 07:36:36;;;;;;;4.70;1.60;;;;;;;9.23;93.72;98898.91;5034486;28;20403;-86
2023/03/14 07:39:01;;;;;;;1.35;0.80;;;;;;;8.90;90.66;98908.31;5033172;28;20503;-86
2023/03/14 07:41:26;;;;;;;0.85;0.50;;;;;;;8.54;90.28;98934.31;5039271;28;20041;-85
2023/03/14 07:43:52;;;;;;;0.95;0.50;;;;;;;8.28;91.03;98937.19;5034167;28;20064;-84
2023/03/14 07:46:17;;;;;;;1.80;0.50;;;;;;;8.12;90.08;98942.25;5035087;28;20035;-83
2023/03/14 07:48:42;;;;;;;0.47;0.30;;;;;;;7.93;90.14;98941.44;5033534;28;20029;-85
2023/03/14 07:51:08;;;;;;;0.52;0.35;;;;;;;7.74;91.21;98957.78;5037429;28;20108;-83
2023/03/14 07:53:33;;;;;;;1.13;0.38;;;;;;;7.64;92.38;98965.13;5033089;28;20060;-82
2023/03/14 07:55:58;;;;;;;1.25;0.47;;;;;;;7.53;92.32;98968.16;5036209;28;20082;-83
2023/03/14 07:58:24;;;;;;;1.52;0.50;;;;;;;7.44;91.55;98974.59;5020341;28;20370;-84
2023/03/14 08:00:50;;;;;;;1.48;0.73;;;;;;;7.41;92.00;98986.81;5040750;28;20421;-84
2023/03/14 08:03:16;;;;;;;0.82;0.50;;;;;;;7.31;92.51;98988.94;5040418;28;20053;-84
2023/03/14 08:05:42;;;;;;;1.67;0.50;;;;;;;7.19;93.35;98997.19;5033650;28;20033;-83
2023/03/14 08:08:07;;;;;;;1.33;0.70;;;;;;;7.14;93.53;99000.00;5033379;28;20029;-83
2023/03/14 08:10:32;;;;;;;1.45;0.50;;;;;;;7.11;93.29;99006.13;5033581;28;20029;-83
2023/03/14 08:12:59;;;;;;;1.83;0.68;;;;;;;7.14;92.91;99021.53;5030591;28;20461;-83
2023/03/14 08:15:25;;;;;;;1.35;0.60;;;;;;;7.06;93.76;99018.41;5028624;28;20033;-82
2023/03/14 08:17:51;;;;;;;1.70;0.70;;;;;;;7.09;93.71;99033.81;5017447;28;20043;-83
2023/03/14 08:20:25;;;;;;;1.60;0.77;;;;;;;7.06;94.21;99046.84;5035407;28;20492;-83
2023/03/14 08:22:50;;;;;;;2.25;0.82;;;;;;;7.03;94.40;99054.72;5028401;28;20166;-82
2023/03/14 08:25:16;;;;;;;3.42;0.80;;;;;;;7.03;94.58;99069.41;5026312;28;20791;-82
2023/03/14 08:27:42;;;;;;;1.25;0.75;;;;;;;7.09;93.81;99074.31;5029486;28;20036;-83
2023/03/14 08:30:11;;;;;;;1.52;0.60;;;;;;;7.04;94.25;99082.25;5036658;28;20123;-81
2023/03/14 08:32:37;;;;;;;1.70;0.70;;;;;;;7.07;94.18;99089.06;5029418;28;20115;-83
2023/03/14 08:35:03;;;;;;;1.10;0.70;;;;;;;7.08;93.80;99099.34;5032729;28;20124;-83
2023/03/14 08:37:28;;;;;;;4.20;0.90;;;;;;;7.10;94.17;99115.66;5026551;28;20029;-82
2023/03/14 08:39:54;;;;;;;3.95;0.75;;;;;;;7.16;94.05;99122.31;5031067;28;20082;-83
2023/03/14 08:42:19;;;;;;;2.00;0.65;;;;;;;7.21;94.08;99129.88;5035653;28;20032;-82
2023/03/14 08:44:45;;;;;;;1.88;0.63;;;;;;;7.22;93.99;99121.22;5036202;28;20033;-81
2023/03/14 08:47:10;;;;;;;2.28;0.70;;;;;;;7.27;93.59;99137.41;5033540;28;20037;-82
2023/03/14 08:49:35;;;;;;;1.42;0.60;;;;;;;7.28;92.68;99152.03;5032996;28;20064;-83
2023/03/14 08:52:03;;;;;;;2.53;0.60;;;;;;;7.26;93.05;99146.91;5033621;28;20025;-82
2023/03/14 08:54:28;;;;;;;4.85;0.77;;;;;;;7.22;93.05;99150.53;5030743;28;20044;-81
2023/03/14 08:56:53;;;;;;;1.38;0.70;;;;;;;7.26;92.22;99161.59;5029353;28;20033;-82
2023/03/14 08:59:19;;;;;;;3.15;0.65;;;;;;;7.19;92.52;99175.66;5032156;28;20122;-83
2023/03/14 09:01:44;;;;;;;2.25;0.70;;;;;;;7.18;91.33;99186.91;5023426;28;20028;-83
2023/03/14 09:04:09;;;;;;;1.20;0.70;;;;;;;7.13;91.83;99198.28;5035577;28;20148;-82
2023/03/14 09:06:35;;;;;;;1.83;1.10;;;;;;;7.00;92.32;99217.75;5040564;28;20028;-84
2023/03/14 09:09:01;;;;;;;3.30;0.80;;;;;;;6.93;92.87;99226.63;5037466;28;20025;-82
2023/03/14 09:11:26;;;;;;;1.60;0.70;;;;;;;6.84;92.19;99226.03;5035126;28;20464;-81
2023/03/14 09:13:51;;;;;;;0.77;0.50;;;;;;;6.72;93.37;99234.25;5030892;28;20029;-81
2023/03/14 09:16:17;;;;;;;1.02;0.50;;;;;;;6.71;93.12;99242.91;5036234;28;20025;-83
2023/03/14 09:18:42;;;;;;;2.33;0.70;;;;;;;6.72;93.28;99251.53;5035255;28;20111;-82
2023/03/14 09:21:07;;;;;;;2.50;0.82;;;;;;;6.73;92.93;99254.03;5037257;28;20668;-80
2023/03/14 09:23:33;;;;;;;2.40;0.90;;;;;;;6.77;92.02;99278.88;5036583;28;20033;-84
2023/03/14 09:25:59;;;;;;;3.20;0.95;;;;;;;6.82;91.81;99283.88;5031688;28;20022;-82
2023/03/14 09:28:25;;;;;;;1.23;0.77;;;;;;;6.77;92.25;99288.34;5040262;28;20029;-82
2023/03/14 09:30:50;;;;;;;3.78;1.45;;;;;;;6.75;92.22;99296.19;5039789;28;20078;-83
2023/03/14 09:33:16;;;;;;;2.80;1.25;;;;;;;6.74;92.03;99325.50;5034865;28;20384;-83
2023/03/14 09:35:41;;;;;;;1.60;0.90;;;;;;;6.59;91.53;99339.78;5034981;28;20036;-81
2023/03/14 09:38:07;;;;;;;0.98;0.65;;;;;;;6.44;91.47;99355.78;5033347;28;20033;-81
2023/03/14 09:40:35;;;;;;;0.80;0.40;;;;;;;6.37;92.36;99361.19;5032855;28;20029;-81
2023/03/14 09:43:02;;;;;;;0.70;0.40;;;;;;;6.34;92.02;99376.78;5033638;28;20093;-81
2023/03/14 09:45:36;;;;;;;1.02;0.50;;;;;;;6.30;92.10;99390.66;5031117;28;20116;-80
2023/03/14 09:48:03;;;;;;;0.35;0.30;;;;;;;6.29;91.16;99409.63;5036603;28;20103;-80
2023/03/14 09:50:42;;;;;;;1.15;0.43;;;;;;;6.30;91.54;99413.91;5032331;28;20051;-81
2023/03/14 09:53:33;;;;;;;0.80;0.20;;;;;;;6.37;90.76;99427.47;5016972;28;20396;-81
2023/03/14 09:55:59;;;;;;;1.63;0.28;;;;;;;6.43;89.25;99427.28;5032853;28;20195;-81
2023/03/14 09:58:24;;;;;;;2.22;0.40;;;;;;;6.36;88.53;99446.44;5037457;28;20520;-81
2023/03/14 10:00:53;;;;;;;1.40;0.30;;;;;;;6.36;88.31;99451.63;5033170;28;20125;-81
2023/03/14 10:03:28;;;;;;;1.30;0.50;;;;;;;6.38;88.52;99473.09;5038095;28;20032;-81
2023/03/14 10:05:55;;;;;;;4.20;0.50;;;;;;;6.42;88.67;99479.84;5035486;28;20033;-81
2023/03/14 10:08:21;;;;;;;2.53;0.55;;;;;;;6.42;86.70;99487.59;5035067;28;20032;-81
2023/03/14 10:10:46;;;;;;;2.90;0.40;;;;;;;6.44;86.80;99505.63;5032566;28;20033;-80
2023/03/14 10:13:16;;;;;;;2.25;0.50;;;;;;;6.42;86.48;99513.44;5030177;28;20030;-81
2023/03/14 10:15:47;;;;;;;1.73;0.43;;;;;;;6.45;87.19;99528.84;5035147;28;20067;-81
2023/03/14 10:18:14;;;;;;;2.15;0.40;;;;;;;6.58;84.79;99538.81;5031840;28;20063;-80
2023/03/14 10:20:45;;;;;;;2.70;0.70;;;;;;;6.57;83.54;99552.63;5027676;28;20045;-81
2023/03/14 10:23:13;;;;;;;3.47;0.60;;;;;;;6.53;84.84;99563.03;5031183;28;20033;-81
2023/03/14 10:26:00;;;;;;;5.43;0.80;;;;;;;6.53;84.73;99583.72;5036584;28;20033;-80
2023/03/14 10:28:31;;;;;;;3.63;0.65;;;;;;;6.58;83.43;99585.31;5034405;28;20040;-80
2023/03/14 10:30:58;;;;;;;2.70;0.60;;;;;;;6.63;81.70;99599.78;5034895;28;20477;-81
2023/03/14 10:33:28;;;;;;;5.03;0.80;;;;;;;6.72;80.94;99615.94;5033601;28;20090;-80
2023/03/14 10:36:00;;;;;;;6.43;0.80;;;;;;;6.75;80.86;99619.25;5035756;28;20416;-81
2023/03/14 10:38:26;;;;;;;;;;;;;;;6.82;82.37;99628.53;5037322;28;20033;-81
2023/03/14 10:40:54;;;;;;;4.95;0.82;;;;;;;6.82;79.36;99643.19;5037641;28;20032;-80
2023/03/14 10:43:26;;;;;;;6.25;0.95;;;;;;;6.79;78.37;99651.91;5035634;28;20034;-81
2023/03/14 10:45:57;;;;;;;6.70;1.20;;;;;;;6.89;78.74;99656.78;5032437;28;20088;-80
2023/03/14 10:48:34;;;;;;;8.82;1.00;;;;;;;6.98;77.59;99661.69;5036219;28;20033;-80
2023/03/14 10:51:06;;;;;;;6.47;1.05;;;;;;;7.02;77.66;99663.28;5035947;28;20033;-80
2023/03/14 10:53:41;;;;;;;6.90;0.65;;;;;;;7.05;77.05;99680.44;5036040;28;20035;-80
2023/03/14 10:56:07;;;;;;;8.88;1.42;;;;;;;7.10;76.27;99694.94;5017922;28;20086;-79
2023/03/14 10:58:38;;;;;;;7.10;0.98;;;;;;;7.20;77.59;99703.28;5032400;28;20029;-79
2023/03/14 11:01:22;;;;;;;6.38;0.90;;;;;;;7.26;75.91;99715.16;5034272;28;20041;-79
2023/03/14 11:04:08;;;;;;;6.18;0.90;;;;;;;7.28;76.44;99721.97;5034353;28;20052;-79
2023/03/14 11:07:08;;;;;;;6.03;1.00;;;;;;;7.30;76.00;99737.47;5035744;28;20037;-79
2023/03/14 11:10:07;;;;;;;7.28;1.02;;;;;;;7.33;76.90;99739.97;5009100;28;20064;-80
2023/03/14 11:12:38;;;;;;;6.45;0.85;;;;;;;7.42;76.39;99752.63;5039220;28;20061;-81
2023/03/14 11:15:20;;;;;;;6.47;1.00;;;;;;;7.52;76.57;99765.25;5038077;28;20036;-80
2023/03/14 11:18:12;;;;;;;6.35;1.10;;;;;;;7.52;75.01;99768.72;5041585;28;20032;-80
2023/03/14 11:20:52;;;;;;;4.53;0.95;;;;;;;7.57;73.92;99773.75;5036444;28;20068;-80
2023/03/14 11:23:23;;;;;;;7.15;1.20;;;;;;;7.54;74.70;99786.78;5032888;28;20031;-81
2023/03/14 11:26:26;;;;;;;8.00;1.02;;;;;;;7.46;77.27;99820.66;5036688;28;20028;-82
2023/03/14 11:28:58;;;;;;;5.32;1.00;;;;;;;7.21;78.14;99843.78;5038595;28;20028;-82
2023/03/14 11:31:31;;;;;;;5.18;0.70;;;;;;;6.86;80.90;99846.47;5035667;28;20131;-82
2023/03/14 11:34:25;;;;;;;7.30;1.10;;;;;;;6.76;80.91;99848.44;5034152;28;20033;-82
2023/03/14 11:37:00;;;;;;;4.63;0.90;;;;;;;6.65;80.27;99865.97;5039913;28;20502;-82
2023/03/14 11:39:35;;;;;;;6.57;1.13;;;;;;;6.62;82.69;99866.03;5040025;28;20496;-82
2023/03/14 11:42:01;;;;;;;6.97;1.10;;;;;;;6.60;80.83;99870.38;5040395;28;20038;-82